Time;durP1;ratioP1;P1;durP2;ratioP2;P2;SDS_P1;SDS_P2;PMS_P1;PMS_P2;Temp;Humidity;BMP_temperature;BMP_pressure;BME280_temperature;BME280_humidity;BME280_pressure;Samples;Min_cycle;Max_cycle;Signal;HPM_P1;HPM_P2
2023/07/17 00:01:42;;;;;;;;;;;;;;;28.13;43.01;97150.56;4233825;28;6512;-64
2023/07/17 00:03:46;;;;;;;;;;;;;;;28.12;42.98;97151.66;4234036;28;5601;-64
2023/07/17 00:05:51;;;;;;;;;;;;;;;28.07;42.96;97154.47;4231010;28;5692;-64
2023/07/17 00:07:54;;;;;;;;;;;;;;;28.06;43.08;97147.41;4232507;27;5894;-64
2023/07/17 00:09:57;;;;;;;;;;;;;;;28.03;43.10;97137.94;4232333;27;5621;-64
2023/07/17 00:12:00;;;;;;;;;;;;;;;28.03;43.03;97142.56;4228353;28;5700;-64
2023/07/17 00:14:03;;;;;;;;;;;;;;;28.05;42.95;97146.59;4220308;27;5601;-64
2023/07/17 00:16:05;;;;;;;;;;;;;;;28.07;42.77;97143.59;4233993;28;5584;-64
2023/07/17 00:18:08;;;;;;;;;;;;;;;28.07;42.81;97146.31;4233937;28;5895;-63
2023/07/17 00:20:13;;;;;;;;;;;;;;;28.06;42.73;97141.97;4234015;28;5714;-63
2023/07/17 00:22:15;;;;;;;;;;;;;;;28.06;42.72;97145.50;4233994;28;5809;-64
2023/07/17 00:24:18;;;;;;;;;;;;;;;28.07;42.79;97155.25;4225387;28;5711;-64
2023/07/17 00:26:21;;;;;;;;;;;;;;;28.06;42.62;97150.94;4233929;28;5797;-63
2023/07/17 00:28:25;;;;;;;;;;;;;;;28.04;42.62;97144.19;4237473;28;6373;-64
2023/07/17 00:30:28;;;;;;;;;;;;;;;28.01;42.84;97142.06;4237740;28;5624;-64
2023/07/17 00:32:31;;;;;;;;;;;;;;;27.98;42.75;97139.97;4236352;28;5675;-64
2023/07/17 00:34:33;;;;;;;;;;;;;;;27.94;43.01;97144.34;4237508;28;5680;-63
2023/07/17 00:36:37;;;;;;;;;;;;;;;27.87;42.97;97135.78;4237478;28;6291;-64
2023/07/17 00:38:40;;;;;;;;;;;;;;;27.83;43.14;97141.78;4237538;28;5665;-64
2023/07/17 00:40:42;;;;;;;;;;;;;;;27.77;42.97;97140.28;4237407;28;5605;-65
2023/07/17 00:42:45;;;;;;;;;;;;;;;27.71;43.21;97136.00;4237237;28;6304;-64
2023/07/17 00:44:48;;;;;;;;;;;;;;;27.68;43.22;97138.50;4237334;28;5695;-64
2023/07/17 00:46:52;;;;;;;;;;;;;;;27.64;43.31;97146.41;4219224;28;5623;-64
2023/07/17 00:48:56;;;;;;;;;;;;;;;27.61;43.38;97136.13;4237386;28;5605;-64
2023/07/17 00:50:58;;;;;;;;;;;;;;;27.60;43.24;97142.66;4236607;28;5609;-63
2023/07/17 00:53:03;;;;;;;;;;;;;;;27.53;43.60;97134.09;4236397;28;5735;-63
2023/07/17 00:55:09;;;;;;;;;;;;;;;27.49;43.59;97133.03;4237841;28;5687;-63
2023/07/17 00:57:16;;;;;;;;;;;;;;;27.43;43.75;97129.59;4237291;28;5637;-63
2023/07/17 00:59:18;;;;;;;;;;;;;;;27.41;43.65;97136.41;4237430;28;5710;-63
2023/07/17 01:01:22;;;;;;;;;;;;;;;27.37;43.66;97135.38;4237319;28;5688;-63
2023/07/17 01:03:25;;;;;;;;;;;;;;;27.38;43.65;97145.16;4237272;28;5593;-63
2023/07/17 01:05:28;;;;;;;;;;;;;;;27.41;43.54;97148.09;4237172;28;5608;-64
2023/07/17 01:07:31;;;;;;;;;;;;;;;27.45;43.57;97153.75;4236445;28;5712;-63
2023/07/17 01:09:35;;;;;;;;;;;;;;;27.48;43.69;97150.44;4235528;28;5612;-64
2023/07/17 01:11:38;;;;;;;;;;;;;;;27.50;43.49;97146.31;4235834;28;5134;-63
2023/07/17 01:13:45;;;;;;;;;;;;;;;27.52;43.47;97135.16;4236571;28;5735;-64
2023/07/17 01:15:48;;;;;;;;;;;;;;;27.53;43.55;97139.53;4236529;27;5836;-64
2023/07/17 01:17:51;;;;;;;;;;;;;;;27.53;43.66;97136.81;4236166;28;5632;-64
2023/07/17 01:19:54;;;;;;;;;;;;;;;27.56;43.64;97139.72;4236766;28;5516;-64
2023/07/17 01:22:16;;;;;;;;;;;;;;;27.57;43.59;97140.53;4236835;28;5818;-64
2023/07/17 01:24:21;;;;;;;;;;;;;;;27.58;43.66;97134.00;4236828;28;6243;-64
2023/07/17 01:26:23;;;;;;;;;;;;;;;27.56;43.51;97134.31;4236747;28;5605;-64
2023/07/17 01:28:26;;;;;;;;;;;;;;;27.54;43.55;97122.13;4236383;28;5691;-64
2023/07/17 01:30:29;;;;;;;;;;;;;;;27.57;43.74;97126.97;4236598;28;5616;-64
2023/07/17 01:32:32;;;;;;;;;;;;;;;27.53;43.63;97124.03;4234921;27;5613;-63
2023/07/17 01:34:35;;;;;;;;;;;;;;;27.51;43.61;97128.13;4236844;28;5651;-64
2023/07/17 01:36:38;;;;;;;;;;;;;;;27.50;43.75;97119.16;4236615;28;5826;-64
2023/07/17 01:38:41;;;;;;;;;;;;;;;27.49;43.64;97128.41;4235845;28;5695;-64
2023/07/17 01:40:45;;;;;;;;;;;;;;;27.50;43.64;97135.47;4236736;28;5747;-64
2023/07/17 01:42:48;;;;;;;;;;;;;;;27.50;43.56;97131.94;4236199;28;5703;-64
2023/07/17 01:44:51;;;;;;;;;;;;;;;27.52;43.60;97132.44;4236655;28;5601;-64
2023/07/17 01:46:53;;;;;;;;;;;;;;;27.55;43.53;97131.88;4235425;28;5605;-64
2023/07/17 01:48:56;;;;;;;;;;;;;;;27.53;43.50;97125.94;4236154;28;5688;-64
2023/07/17 01:50:59;;;;;;;;;;;;;;;27.58;43.70;97120.44;4228300;28;5687;-63
2023/07/17 01:53:03;;;;;;;;;;;;;;;27.61;43.56;97125.25;4234863;28;5777;-63
2023/07/17 01:55:06;;;;;;;;;;;;;;;27.63;43.60;97123.06;4236278;28;5745;-64
2023/07/17 01:57:11;;;;;;;;;;;;;;;27.66;43.23;97127.94;4236107;28;5810;-64
2023/07/17 01:59:13;;;;;;;;;;;;;;;27.69;43.54;97127.34;4235709;28;5811;-64
2023/07/17 02:01:16;;;;;;;;;;;;;;;27.71;43.55;97127.06;4236295;28;5964;-63
2023/07/17 02:03:18;;;;;;;;;;;;;;;27.71;43.59;97127.06;4234350;28;5695;-63
2023/07/17 02:05:22;;;;;;;;;;;;;;;27.72;43.46;97126.75;4236277;28;5521;-64
2023/07/17 02:07:24;;;;;;;;;;;;;;;27.74;43.34;97129.97;4236191;28;5604;-64
2023/07/17 02:09:27;;;;;;;;;;;;;;;27.75;43.56;97119.94;4236068;28;6026;-64
2023/07/17 02:11:30;;;;;;;;;;;;;;;27.75;43.56;97120.75;4235822;28;5601;-64
2023/07/17 02:13:35;;;;;;;;;;;;;;;27.75;43.49;97109.88;4235022;28;6271;-64
2023/07/17 02:15:37;;;;;;;;;;;;;;;27.74;43.74;97118.31;4236116;28;5814;-64
2023/07/17 02:17:40;;;;;;;;;;;;;;;27.74;43.55;97127.25;4236050;28;5688;-64
2023/07/17 02:19:43;;;;;;;;;;;;;;;27.74;43.75;97113.69;4235415;27;5569;-64
2023/07/17 02:21:46;;;;;;;;;;;;;;;27.76;43.69;97122.38;4235830;28;5704;-63
2023/07/17 02:23:48;;;;;;;;;;;;;;;27.76;43.71;97116.13;4235806;27;6190;-64
2023/07/17 02:25:51;;;;;;;;;;;;;;;27.77;43.69;97128.59;4226754;27;5605;-64
2023/07/17 02:27:55;;;;;;;;;;;;;;;27.77;43.80;97121.25;4217821;28;5678;-64
2023/07/17 02:29:59;;;;;;;;;;;;;;;27.79;43.93;97116.31;4237789;27;5075;-64
2023/07/17 02:32:02;;;;;;;;;;;;;;;27.80;43.83;97123.38;4241258;27;5608;-63
2023/07/17 02:34:07;;;;;;;;;;;;;;;27.82;43.96;97113.00;4228439;28;5699;-64
2023/07/17 02:36:10;;;;;;;;;;;;;;;27.82;43.95;97106.78;4234436;27;5695;-64
2023/07/17 02:38:13;;;;;;;;;;;;;;;27.82;44.03;97104.88;4235378;28;5605;-63
2023/07/17 02:40:16;;;;;;;;;;;;;;;27.83;44.11;97103.75;4235236;28;5672;-63
2023/07/17 02:42:18;;;;;;;;;;;;;;;27.82;44.13;97098.63;4235475;28;5629;-63
2023/07/17 02:44:21;;;;;;;;;;;;;;;27.82;44.14;97104.88;4235821;28;5498;-64
2023/07/17 02:46:26;;;;;;;;;;;;;;;27.82;44.20;97104.88;4235190;28;5703;-63
2023/07/17 02:48:27;;;;;;;;;;;;;;;27.82;44.19;97109.50;4235434;28;5528;-63
2023/07/17 02:50:30;;;;;;;;;;;;;;;27.81;44.02;97108.69;4234222;28;5692;-63
2023/07/17 02:52:36;;;;;;;;;;;;;;;27.80;44.34;97107.06;4234578;28;5552;-63
2023/07/17 02:54:37;;;;;;;;;;;;;;;27.80;43.97;97112.50;4234391;28;5521;-63
2023/07/17 02:56:41;;;;;;;;;;;;;;;27.79;44.18;97110.91;4226757;28;5787;-63
2023/07/17 02:58:48;;;;;;;;;;;;;;;27.79;44.44;97108.19;4233997;28;5597;-64
2023/07/17 03:00:50;;;;;;;;;;;;;;;27.80;44.32;97112.50;4235425;28;5870;-64
2023/07/17 03:02:54;;;;;;;;;;;;;;;27.79;44.36;97115.53;4235151;28;5509;-63
2023/07/17 03:04:57;;;;;;;;;;;;;;;27.79;44.28;97116.31;4235688;28;5589;-64
2023/07/17 03:07:00;;;;;;;;;;;;;;;27.78;44.45;97116.63;4235131;28;5593;-64
2023/07/17 03:09:03;;;;;;;;;;;;;;;27.78;44.44;97122.88;4233072;28;5719;-64
2023/07/17 03:11:06;;;;;;;;;;;;;;;27.77;44.39;97121.25;4234809;28;5513;-64
2023/07/17 03:13:09;;;;;;;;;;;;;;;27.76;44.32;97127.78;4234629;28;5707;-64
2023/07/17 03:15:12;;;;;;;;;;;;;;;27.76;44.46;97129.72;4244025;27;5714;-64
2023/07/17 03:17:14;;;;;;;;;;;;;;;27.74;44.48;97127.25;4235109;28;5514;-64
2023/07/17 03:19:18;;;;;;;;;;;;;;;27.74;44.56;97123.72;4234163;28;5775;-63
2023/07/17 03:21:22;;;;;;;;;;;;;;;27.72;44.39;97132.19;4235244;28;5056;-64
2023/07/17 03:23:26;;;;;;;;;;;;;;;27.74;44.43;97143.56;4234362;28;5729;-64
2023/07/17 03:25:29;;;;;;;;;;;;;;;27.74;44.61;97145.47;4233871;28;5613;-63
2023/07/17 03:27:32;;;;;;;;;;;;;;;27.74;44.47;97140.84;4233691;27;7328;-64
2023/07/17 03:29:35;;;;;;;;;;;;;;;27.75;44.31;97136.25;4236691;27;5669;-64
2023/07/17 03:31:38;;;;;;;;;;;;;;;27.75;44.47;97137.03;4235195;27;5625;-63
2023/07/17 03:33:41;;;;;;;;;;;;;;;27.75;44.33;97126.19;4234801;28;5597;-64
2023/07/17 03:35:46;;;;;;;;;;;;;;;27.74;44.17;97129.97;4236554;27;5730;-64
2023/07/17 03:37:48;;;;;;;;;;;;;;;27.71;44.47;97125.13;4234101;27;6420;-64
2023/07/17 03:39:50;;;;;;;;;;;;;;;27.71;44.49;97125.13;4238319;27;5713;-65
2023/07/17 03:41:53;;;;;;;;;;;;;;;27.70;44.61;97131.69;4233787;28;5509;-65
2023/07/17 03:43:59;;;;;;;;;;;;;;;27.70;44.56;97139.81;4234299;28;5505;-64
2023/07/17 03:46:02;;;;;;;;;;;;;;;27.71;44.59;97143.34;4234007;28;5841;-65
2023/07/17 03:48:06;;;;;;;;;;;;;;;27.70;44.63;97147.16;4231372;27;5695;-64
2023/07/17 03:50:10;;;;;;;;;;;;;;;27.70;44.54;97158.84;4239656;27;5770;-64
2023/07/17 03:52:14;;;;;;;;;;;;;;;27.67;44.77;97151.28;4233487;28;5600;-64
2023/07/17 03:54:17;;;;;;;;;;;;;;;27.67;44.54;97151.28;4234420;28;5811;-64
2023/07/17 03:56:20;;;;;;;;;;;;;;;27.65;44.73;97153.50;4233412;27;5717;-64
2023/07/17 03:58:24;;;;;;;;;;;;;;;27.64;44.72;97151.84;4234227;28;5158;-64
2023/07/17 04:00:27;;;;;;;;;;;;;;;27.66;44.70;97152.41;4234635;28;5589;-64
2023/07/17 04:02:30;;;;;;;;;;;;;;;27.65;44.55;97158.13;4233133;28;5680;-64
2023/07/17 04:04:32;;;;;;;;;;;;;;;27.64;44.84;97146.41;4229768;27;5683;-64
2023/07/17 04:06:35;;;;;;;;;;;;;;;27.64;44.52;97159.19;4244003;27;5513;-64
2023/07/17 04:08:38;;;;;;;;;;;;;;;27.64;44.62;97159.19;4231585;27;5586;-64
2023/07/17 04:10:41;;;;;;;;;;;;;;;27.63;44.63;97160.25;4232675;27;5604;-65
2023/07/17 04:12:44;;;;;;;;;;;;;;;27.59;44.75;97157.34;4230912;27;5728;-64
2023/07/17 04:14:47;;;;;;;;;;;;;;;27.59;44.67;97168.19;4216170;28;5616;-64
2023/07/17 04:16:50;;;;;;;;;;;;;;;27.59;44.61;97170.91;4224297;27;5623;-64
2023/07/17 04:18:53;;;;;;;;;;;;;;;27.60;44.29;97169.00;4225520;27;5605;-64
2023/07/17 04:20:56;;;;;;;;;;;;;;;27.60;44.19;97172.53;4230257;27;5585;-65
2023/07/17 04:22:59;;;;;;;;;;;;;;;27.58;44.17;97174.75;4234090;27;5597;-64
2023/07/17 04:25:03;;;;;;;;;;;;;;;27.57;44.16;97173.13;4232410;27;5609;-64
2023/07/17 04:27:06;;;;;;;;;;;;;;;27.56;44.18;97177.75;4232592;28;6422;-65
2023/07/17 04:29:10;;;;;;;;;;;;;;;27.55;43.89;97175.34;4232834;27;5758;-65
2023/07/17 04:31:13;;;;;;;;;;;;;;;27.56;43.74;97179.66;4233035;27;5601;-65
2023/07/17 04:33:16;;;;;;;;;;;;;;;27.56;43.72;97182.38;4234255;28;5789;-65
2023/07/17 04:35:19;;;;;;;;;;;;;;;27.54;43.49;97185.38;4200738;28;5789;-65
2023/07/17 04:37:23;;;;;;;;;;;;;;;27.53;43.48;97178.34;4195346;28;5693;-64
2023/07/17 04:39:26;;;;;;;;;;;;;;;27.51;43.48;97183.22;4197550;28;5684;-65
2023/07/17 04:41:30;;;;;;;;;;;;;;;27.48;43.33;97183.81;4201585;28;5682;-64
2023/07/17 04:43:33;;;;;;;;;;;;;;;27.48;43.16;97181.13;4199940;28;5764;-64
2023/07/17 04:45:35;;;;;;;;;;;;;;;27.43;43.06;97178.47;4199733;28;5694;-64
2023/07/17 04:47:37;;;;;;;;;;;;;;;27.42;43.00;97186.91;4197421;28;5697;-63
2023/07/17 04:49:40;;;;;;;;;;;;;;;27.41;42.76;97179.84;4200544;28;5776;-64
2023/07/17 04:51:43;;;;;;;;;;;;;;;27.42;42.76;97176.06;4200251;28;5952;-63
2023/07/17 04:53:46;;;;;;;;;;;;;;;27.42;42.41;97176.06;4199996;28;5920;-64
2023/07/17 04:55:48;;;;;;;;;;;;;;;27.41;42.48;97175.25;4191918;28;5776;-64
2023/07/17 04:57:52;;;;;;;;;;;;;;;27.40;42.41;97179.03;4199922;28;5677;-64
2023/07/17 04:59:55;;;;;;;;;;;;;;;27.40;42.20;97183.66;4199344;28;5856;-64
2023/07/17 05:01:58;;;;;;;;;;;;;;;27.42;42.11;97181.50;4200006;28;5709;-64
2023/07/17 05:04:01;;;;;;;;;;;;;;;27.43;41.84;97183.09;4200005;28;5697;-64
2023/07/17 05:06:04;;;;;;;;;;;;;;;27.41;41.86;97177.97;4200085;28;5840;-64
2023/07/17 05:08:07;;;;;;;;;;;;;;;27.42;41.72;97179.59;4200072;28;5690;-64
2023/07/17 05:10:11;;;;;;;;;;;;;;;27.44;41.75;97173.84;4200401;28;5652;-65
2023/07/17 05:12:14;;;;;;;;;;;;;;;27.45;41.66;97180.91;4200297;28;5779;-64
2023/07/17 05:14:18;;;;;;;;;;;;;;;27.41;41.33;97182.56;4202285;28;5773;-65
2023/07/17 05:16:21;;;;;;;;;;;;;;;27.39;41.38;97177.44;4202680;28;6649;-65
2023/07/17 05:18:24;;;;;;;;;;;;;;;27.40;41.22;97189.91;4203043;28;5713;-65
2023/07/17 05:20:27;;;;;;;;;;;;;;;27.40;41.09;97186.38;4203326;28;5682;-65
2023/07/17 05:22:29;;;;;;;;;;;;;;;27.40;41.00;97189.91;4202919;28;5799;-65
2023/07/17 05:24:33;;;;;;;;;;;;;;;27.41;40.82;97186.13;4203050;28;7291;-65
2023/07/17 05:26:35;;;;;;;;;;;;;;;27.42;41.13;97186.91;4203138;28;5693;-63
2023/07/17 05:28:40;;;;;;;;;;;;;;;27.41;41.01;97185.28;4199016;28;5766;-64
2023/07/17 05:30:44;;;;;;;;;;;;;;;27.41;40.87;97196.97;4201287;28;5861;-64
2023/07/17 05:32:47;;;;;;;;;;;;;;;27.40;40.85;97198.03;4197491;28;5680;-64
2023/07/17 05:34:50;;;;;;;;;;;;;;;27.41;40.81;97194.25;4201588;28;6533;-64
2023/07/17 05:36:53;;;;;;;;;;;;;;;27.41;40.70;97202.41;4236625;28;5689;-64
2023/07/17 05:38:56;;;;;;;;;;;;;;;27.45;40.70;97210.75;4235097;28;5068;-64
2023/07/17 05:40:59;;;;;;;;;;;;;;;27.46;40.92;97206.94;4236466;28;5593;-65
2023/07/17 05:43:03;;;;;;;;;;;;;;;27.46;40.57;97213.19;4236863;27;6492;-64
2023/07/17 05:45:07;;;;;;;;;;;;;;;27.49;40.55;97206.34;4242118;27;5838;-65
2023/07/17 05:47:12;;;;;;;;;;;;;;;27.50;40.37;97211.50;4234444;27;5711;-65
2023/07/17 05:49:15;;;;;;;;;;;;;;;27.52;40.37;97200.34;4224762;27;5611;-64
2023/07/17 05:51:17;;;;;;;;;;;;;;;27.53;40.39;97204.69;4228807;27;5621;-64
2023/07/17 05:53:20;;;;;;;;;;;;;;;27.55;40.59;97216.06;4232942;28;5771;-65
2023/07/17 05:55:23;;;;;;;;;;;;;;;27.56;40.41;97220.41;4234317;28;5721;-65
2023/07/17 05:57:26;;;;;;;;;;;;;;;27.54;40.24;97217.16;4229044;28;5881;-64
2023/07/17 05:59:29;;;;;;;;;;;;;;;27.57;40.27;97211.16;4232322;28;5604;-63
2023/07/17 06:01:31;;;;;;;;;;;;;;;27.55;40.17;97213.34;4233820;28;5508;-64
2023/07/17 06:03:36;;;;;;;;;;;;;;;27.54;40.37;97212.53;4235248;28;5549;-64
2023/07/17 06:05:39;;;;;;;;;;;;;;;27.50;40.48;97214.22;4233096;28;5683;-64
2023/07/17 06:07:41;;;;;;;;;;;;;;;27.52;40.33;97214.75;4233339;28;5686;-64
2023/07/17 06:09:44;;;;;;;;;;;;;;;27.53;40.23;97221.78;4231627;28;5676;-64
2023/07/17 06:11:47;;;;;;;;;;;;;;;27.54;40.35;97228.03;4232319;28;5916;-64
2023/07/17 06:13:49;;;;;;;;;;;;;;;27.55;40.20;97226.94;4235999;28;5683;-64
2023/07/17 06:15:52;;;;;;;;;;;;;;;27.57;40.45;97232.88;4235819;28;5867;-64
2023/07/17 06:17:55;;;;;;;;;;;;;;;27.58;40.31;97231.75;4235364;28;5770;-65
2023/07/17 06:19:59;;;;;;;;;;;;;;;27.59;40.27;97236.09;4234447;27;5934;-65
2023/07/17 06:22:02;;;;;;;;;;;;;;;27.65;40.19;97234.16;4229535;28;6297;-64
2023/07/17 06:24:07;;;;;;;;;;;;;;;27.71;40.27;97239.22;4233845;28;5632;-64
2023/07/17 06:26:10;;;;;;;;;;;;;;;27.73;40.22;97239.72;4227868;28;5605;-64
2023/07/17 06:28:14;;;;;;;;;;;;;;;27.79;39.97;97245.91;4233407;28;5610;-64
2023/07/17 06:30:17;;;;;;;;;;;;;;;27.84;40.15;97238.50;4221268;28;5726;-65
2023/07/17 06:32:20;;;;;;;;;;;;;;;27.88;39.96;97235.22;4228040;28;6369;-64
2023/07/17 06:34:23;;;;;;;;;;;;;;;27.90;40.08;97238.44;4235088;28;5808;-64
2023/07/17 06:36:27;;;;;;;;;;;;;;;27.90;39.79;97241.16;4234876;28;5825;-64
2023/07/17 06:38:30;;;;;;;;;;;;;;;27.90;40.02;97241.97;4234792;28;5597;-63
2023/07/17 06:40:34;;;;;;;;;;;;;;;27.96;39.93;97246.19;4233251;28;5614;-62
2023/07/17 06:42:38;;;;;;;;;;;;;;;28.04;40.05;97253.69;4235075;28;7700;-61
2023/07/17 06:44:41;;;;;;;;;;;;;;;28.08;39.82;97238.41;4239858;27;5739;-62
2023/07/17 06:46:44;;;;;;;;;;;;;;;28.13;39.71;97245.69;4235332;28;5605;-62
2023/07/17 06:48:46;;;;;;;;;;;;;;;28.16;39.74;97245.09;4235333;28;5836;-62
2023/07/17 06:50:49;;;;;;;;;;;;;;;28.21;39.61;97250.47;4234217;27;5784;-62
2023/07/17 06:52:53;;;;;;;;;;;;;;;28.24;39.73;97252.59;4233360;27;6608;-63
2023/07/17 06:54:56;;;;;;;;;;;;;;;28.28;39.61;97250.91;4232653;27;5594;-63
2023/07/17 06:57:07;;;;;;;;;;;;;;;28.29;39.70;97259.88;4232938;27;6397;-62
2023/07/17 06:59:10;;;;;;;;;;;;;;;28.27;39.64;97254.75;4236861;27;5699;-63
2023/07/17 07:01:14;;;;;;;;;;;;;;;28.25;39.59;97246.03;4234063;28;5818;-62
2023/07/17 07:03:17;;;;;;;;;;;;;;;28.23;39.88;97245.53;4235314;28;5529;-63
2023/07/17 07:05:20;;;;;;;;;;;;;;;28.21;39.99;97247.75;4235188;28;5626;-63
2023/07/17 07:07:23;;;;;;;;;;;;;;;28.23;40.08;97245.53;4235084;28;5589;-63
2023/07/17 07:09:28;;;;;;;;;;;;;;;28.23;40.32;97244.72;4235874;27;5589;-60
2023/07/17 07:11:31;;;;;;;;;;;;;;;28.21;40.52;97247.75;4232643;27;5736;-62
2023/07/17 07:13:35;;;;;;;;;;;;;;;28.23;40.69;97250.16;4227564;27;5728;-61
2023/07/17 07:15:38;;;;;;;;;;;;;;;28.20;40.74;97250.75;4233790;28;5625;-62
2023/07/17 07:17:41;;;;;;;;;;;;;;;28.13;41.19;97249.22;4226413;27;5624;-62
2023/07/17 07:19:44;;;;;;;;;;;;;;;28.13;41.61;97251.13;4233249;27;5825;-61
2023/07/17 07:21:48;;;;;;;;;;;;;;;28.10;41.89;97251.72;4240490;27;5586;-61
2023/07/17 07:23:51;;;;;;;;;;;;;;;28.08;42.11;97256.63;4234672;27;5525;-62
2023/07/17 07:25:55;;;;;;;;;;;;;;;28.05;42.31;97258.03;4222014;27;5877;-61
2023/07/17 07:27:59;;;;;;;;;;;;;;;28.04;42.62;97258.31;4225941;27;5924;-61
2023/07/17 07:30:04;;;;;;;;;;;;;;;28.02;42.81;97255.91;4230149;28;5183;-61
2023/07/17 07:32:08;;;;;;;;;;;;;;;28.01;42.89;97267.06;4218972;28;5716;-62
2023/07/17 07:34:13;;;;;;;;;;;;;;;28.04;43.31;97261.84;4218771;27;5135;-72
2023/07/17 07:36:16;;;;;;;;;;;;;;;28.10;43.40;97262.59;4223377;27;5786;-70
2023/07/17 07:38:20;;;;;;;;;;;;;;;28.13;43.57;97264.72;4221464;27;5597;-64
2023/07/17 07:40:23;;;;;;;;;;;;;;;28.14;43.75;97258.97;4221221;27;5740;-72
2023/07/17 07:42:30;;;;;;;;;;;;;;;28.15;44.00;97257.06;4225308;27;5725;-72
2023/07/17 07:44:34;;;;;;;;;;;;;;;28.18;44.23;97263.81;4221399;28;5651;-77
2023/07/17 07:46:36;;;;;;;;;;;;;;;28.17;44.36;97262.22;4225614;28;5700;-63
2023/07/17 07:48:40;;;;;;;;;;;;;;;28.14;44.56;97267.13;4226618;28;5824;-64
2023/07/17 07:50:43;;;;;;;;;;;;;;;28.14;44.79;97263.63;4223541;27;5704;-63
2023/07/17 07:52:45;;;;;;;;;;;;;;;28.14;44.93;97258.19;4220634;27;5792;-63
2023/07/17 07:54:49;;;;;;;;;;;;;;;28.16;45.13;97266.03;4225922;27;5609;-63
2023/07/17 07:56:52;;;;;;;;;;;;;;;28.16;45.07;97260.59;4226847;27;5590;-64
2023/07/17 07:58:56;;;;;;;;;;;;;;;28.17;45.30;97271.16;4229749;27;5608;-64
2023/07/17 08:00:59;;;;;;;;;;;;;;;28.17;45.46;97273.88;4221821;27;5571;-63
2023/07/17 08:03:02;;;;;;;;;;;;;;;28.19;45.40;97266.25;4223301;28;5601;-63
2023/07/17 08:05:06;;;;;;;;;;;;;;;28.20;45.65;97272.47;4230445;28;6461;-63
2023/07/17 08:07:09;;;;;;;;;;;;;;;28.20;45.63;97267.03;4223459;28;5632;-64
2023/07/17 08:09:12;;;;;;;;;;;;;;;28.21;45.60;97268.69;4230925;27;7684;-63
2023/07/17 08:11:15;;;;;;;;;;;;;;;28.20;45.97;97270.59;4229569;28;5585;-67
2023/07/17 08:13:18;;;;;;;;;;;;;;;28.22;45.96;97273.81;4232451;27;5589;-67
2023/07/17 08:15:22;;;;;;;;;;;;;;;28.22;46.01;97271.09;4227178;27;5724;-80
2023/07/17 08:17:24;;;;;;;;;;;;;;;28.25;46.00;97270.50;4223189;27;5631;-69
2023/07/17 08:19:27;;;;;;;;;;;;;;;28.29;45.99;97277.00;4229694;28;5880;-72
2023/07/17 08:21:30;;;;;;;;;;;;;;;28.27;45.96;97271.06;4223561;27;6483;-66
2023/07/17 08:23:33;;;;;;;;;;;;;;;28.27;46.01;97271.06;4228039;28;5781;-68
2023/07/17 08:25:36;;;;;;;;;;;;;;;28.28;45.84;97280.81;4233559;28;5729;-72
2023/07/17 08:27:39;;;;;;;;;;;;;;;28.29;45.87;97273.47;4233609;28;6282;-71
2023/07/17 08:29:42;;;;;;;;;;;;;;;28.30;45.73;97278.59;4233968;28;5615;-71
2023/07/17 08:31:47;;;;;;;;;;;;;;;28.32;45.85;97276.44;4232068;28;5597;-69
2023/07/17 08:33:50;;;;;;;;;;;;;;;28.30;45.80;97273.16;4224779;27;5631;-71
2023/07/17 08:35:52;;;;;;;;;;;;;;;28.30;45.85;97280.53;4226197;27;5778;-63
2023/07/17 08:37:55;;;;;;;;;;;;;;;28.29;45.84;97277.00;4228034;27;6130;-78
2023/07/17 08:39:57;;;;;;;;;;;;;;;28.30;45.75;97277.81;4227911;28;5709;-68
2023/07/17 08:42:01;;;;;;;;;;;;;;;28.28;45.58;97282.72;4224209;27;5716;-78
2023/07/17 08:44:04;;;;;;;;;;;;;;;28.29;45.68;97271.56;4224574;27;5773;-68
2023/07/17 08:46:10;;;;;;;;;;;;;;;28.31;45.77;97272.06;4226518;27;5613;-86
2023/07/17 08:48:16;;;;;;;;;;;;;;;28.33;45.67;97271.78;4233459;28;5923;-78
2023/07/17 08:50:20;;;;;;;;;;;;;;;28.33;45.61;97269.88;4231810;28;5075;-79
2023/07/17 08:52:23;;;;;;;;;;;;;;;28.33;45.64;97274.50;4237669;28;5601;-76
2023/07/17 08:54:27;;;;;;;;;;;;;;;28.34;45.50;97276.13;4236146;27;5597;-78
2023/07/17 08:56:32;;;;;;;;;;;;;;;28.38;45.49;97268.97;4235554;28;5815;-80
2023/07/17 08:58:36;;;;;;;;;;;;;;;28.39;45.47;97263.25;4235863;27;6194;-80
2023/07/17 09:00:40;;;;;;;;;;;;;;;28.44;45.38;97269.72;4237013;28;5497;-87
2023/07/17 09:02:42;;;;;;;;;;;;;;;28.43;45.25;97266.19;4232003;27;5671;-77
2023/07/17 09:04:47;;;;;;;;;;;;;;;28.44;45.26;97267.81;4229534;27;6021;-73
2023/07/17 09:06:51;;;;;;;;;;;;;;;28.43;45.34;97263.47;4232780;28;5788;-76
2023/07/17 09:08:54;;;;;;;;;;;;;;;28.44;45.30;97259.66;4232990;27;6397;-75
2023/07/17 09:11:08;;;;;;;;;;;;;;;28.46;44.84;97257.44;4231850;27;6664;-67
2023/07/17 09:13:11;;;;;;;;;;;;;;;28.49;45.00;97264.19;4229798;27;5597;-77
2023/07/17 09:15:16;;;;;;;;;;;;;;;28.50;44.94;97257.66;4226526;27;5606;-70
2023/07/17 09:17:21;;;;;;;;;;;;;;;28.52;44.85;97258.16;4211517;28;5611;-71
2023/07/17 09:19:29;;;;;;;;;;;;;;;28.49;44.70;97254.13;4228407;27;5602;-87
2023/07/17 09:21:41;;;;;;;;;;;;;;;28.52;44.76;97255.44;4232060;27;5826;-82
2023/07/17 09:23:46;;;;;;;;;;;;;;;28.55;44.70;97252.94;4225359;27;5627;-73
2023/07/17 09:25:54;;;;;;;;;;;;;;;28.59;44.55;97242.25;4232569;28;5759;-72
2023/07/17 09:27:58;;;;;;;;;;;;;;;28.60;44.59;97252.03;4230551;27;5676;-77
2023/07/17 09:30:09;;;;;;;;;;;;;;;28.60;44.44;97246.59;4228630;27;5079;-75
2023/07/17 09:32:15;;;;;;;;;;;;;;;28.61;44.52;97246.28;4229595;27;5687;-76
2023/07/17 09:34:19;;;;;;;;;;;;;;;28.63;44.24;97240.56;4227436;28;5601;-79
2023/07/17 09:36:21;;;;;;;;;;;;;;;28.64;44.35;97240.25;4224307;28;5929;-68
2023/07/17 09:38:27;;;;;;;;;;;;;;;28.66;44.28;97237.25;4232188;27;5593;-70
2023/07/17 09:40:29;;;;;;;;;;;;;;;28.66;44.08;97250.84;4232036;27;5597;-81
2023/07/17 09:42:32;;;;;;;;;;;;;;;28.64;44.22;97242.97;4231379;27;5838;-73
2023/07/17 09:44:36;;;;;;;;;;;;;;;28.64;44.27;97255.75;4234201;28;5697;-71
2023/07/17 09:46:40;;;;;;;;;;;;;;;28.63;44.35;97249.50;4231626;27;5656;-77
2023/07/17 09:48:44;;;;;;;;;;;;;;;28.64;44.06;97251.13;4232245;28;5764;-74
2023/07/17 09:50:47;;;;;;;;;;;;;;;28.64;44.04;97247.59;4240235;27;5673;-66
